Latest Weather Observations for Mandurah

IDW60801

Issued at 7:33 am WST Tuesday 30 August 2016 (issued every 30 minutes, with the page automatically refreshed every 10 minutes)

About weather observations | Map of weather stations | Latest weather observations for WA | Other Formats
Station Details ID: 009977 Name: MANDURAH Lat: -32.52 Lon: 115.71 Height: 3.0 m
Data from the previous 72 hours. | See also: Recent months at Mandurah
Date/Time
WST
Temp
°C
App
Temp
°C
Dew
Point
°C
Rel
Hum
%
Delta-T
°C
Wind Press
QNH
hPa
Press
MSL
hPa
Rain since
9am
mm
Dir  Spd
km/h
Gust
km/h
Spd
kts
Gust
kts
30/07:30am 8.4 6.2 6.2 86 1.0 E 7 11 4 6 1017.4 1017.4 0.0
30/07:00am 7.9 5.6 5.5 85 1.1 E 7 13 4 7 1017.3 1017.3 0.0
30/06:30am 8.4 6.1 5.9 84 1.1 ESE 7 11 4 6 1017.1 1017.1 0.0
30/06:00am 9.0 7.4 6.3 83 1.2 ESE 4 6 2 3 1017.2 1017.2 0.0
30/05:30am 9.2 8.0 6.3 82 1.3 SE 2 4 1 2 1017.1 1017.1 0.0
30/05:00am 9.7 7.8 6.8 82 1.4 SE 6 7 3 4 1016.9 1016.9 0.0
30/04:30am 9.6 7.6 7.0 84 1.2 SE 7 11 4 6 1016.6 1016.6 0.0
30/04:00am 9.3 7.4 6.9 85 1.1 SE 6 7 3 4 1016.5 1016.5 0.0
30/03:30am 9.2 7.2 7.0 86 1.0 E 7 11 4 6 1016.6 1016.6 0.0
30/03:00am 9.3 7.3 7.3 87 0.9 ESE 7 9 4 5 1016.7 1016.7 0.0
30/02:30am 9.1 7.3 7.2 88 0.9 ESE 6 7 3 4 1016.9 1016.9 0.0
30/02:00am 8.6 7.1 6.6 87 0.9 ESE 4 6 2 3 1017.1 1017.1 0.0
30/01:30am 8.9 7.4 6.9 87 0.9 ESE 4 4 2 2 1017.3 1017.3 0.0
30/01:00am 9.2 8.1 7.0 86 1.0 ESE 2 4 1 2 1017.5 1017.5 0.0
30/12:30am 9.4 8.3 7.0 85 1.1 ESE 2 4 1 2 1017.6 1017.6 0.0
30/12:00am 9.3 7.8 6.6 83 1.3 ESE 4 4 2 2 1017.4 1017.4 0.0
 
Date/Time
WST
Temp
°C
App
Temp
°C
Dew
Point
°C
Rel
Hum
%
Delta-T
°C
Wind Press
QNH
hPa
Press
MSL
hPa
Rain since
9am
mm
Dir  Spd
km/h
Gust
km/h
Spd
kts
Gust
kts
29/11:30pm 9.7 8.2 6.6 81 1.4 ESE 4 6 2 3 1017.5 1017.5 0.0
29/11:00pm 10.3 8.4 6.5 77 1.8 ESE 6 9 3 5 1017.5 1017.5 0.0
29/10:30pm 11.6 9.8 7.3 75 2.1 S 6 6 3 3 1017.6 1017.6 0.0
29/10:00pm 11.5 10.0 7.0 74 2.1 SSW 4 6 2 3 1017.6 1017.6 0.0
29/09:30pm 12.0 10.6 7.3 73 2.3 S 4 6 2 3 1017.6 1017.6 0.0
29/09:00pm 12.3 10.6 7.4 72 2.4 SSW 6 7 3 4 1017.5 1017.5 0.0
29/08:30pm 12.4 10.6 7.3 71 2.5 SSW 6 7 3 4 1017.5 1017.5 0.0
29/08:00pm 12.6 10.6 7.3 70 2.6 SSW 7 9 4 5 1017.2 1017.2 0.0
29/07:30pm 12.6 10.8 7.1 69 2.7 SSW 6 9 3 5 1017.1 1017.1 0.0
29/07:00pm 13.0 11.1 6.8 66 3.0 SSW 6 13 3 7 1016.8 1016.8 0.0
29/06:30pm 13.4 10.9 6.5 63 3.3 SSW 9 13 5 7 1016.5 1016.5 0.0
29/06:00pm 13.8 11.3 6.4 61 3.5 SSW 9 17 5 9 1016.3 1016.3 0.0
29/05:30pm 14.2 11.2 6.1 58 3.9 SSW 11 17 6 9 1016.1 1016.1 0.0
29/05:00pm 14.5 11.1 6.1 57 4.0 SSW 13 20 7 11 1016.0 1016.0 0.0
29/04:30pm 14.6 10.9 6.4 58 4.0 SSW 15 22 8 12 1015.9 1015.9 0.0
29/04:00pm 14.9 11.0 7.0 59 3.9 SW 17 24 9 13 1015.6 1015.6 0.0
29/03:30pm 15.0 11.0 6.6 57 4.1 SW 17 28 9 15 1015.6 1015.6 0.0
29/03:00pm 15.4 11.7 6.4 55 4.4 SSW 15 22 8 12 1015.4 1015.4 0.0
29/02:30pm 15.5 11.2 7.0 57 4.2 SW 19 28 10 15 1015.5 1015.5 0.0
29/02:00pm 16.0 12.4 6.7 54 4.6 SW 15 24 8 13 1015.3 1015.3 0.0
29/01:30pm 16.0 12.6 5.9 51 4.9 S 13 20 7 11 1015.6 1015.6 0.0
29/01:00pm 16.3 13.1 7.0 54 4.6 S 13 20 7 11 1015.7 1015.7 0.0
29/12:30pm 15.8 12.3 7.3 57 4.2 S 15 22 8 12 1016.0 1016.0 0.0
29/12:00pm 15.3 12.8 8.3 63 3.5 SSE 11 17 6 9 1016.4 1016.4 0.0
29/11:30am 15.0 12.2 8.7 66 3.2 SSE 13 19 7 10 1016.8 1016.8 0.0
29/11:00am 14.6 12.1 8.1 65 3.2 SSE 11 19 6 10 1017.1 1017.1 0.0
29/10:30am 13.9 10.9 7.9 67 3.0 SSE 13 20 7 11 1017.2 1017.2 0.0
29/10:00am 13.2 10.6 7.6 69 2.7 S 11 19 6 10 1017.1 1017.1 0.0
29/09:30am 12.8 9.4 7.5 70 2.6 S 15 24 8 13 1017.1 1017.1 0.0
29/09:00am 12.7 9.4 8.2 74 2.2 S 15 22 8 12 1016.9 1016.9 0.0
29/08:30am 12.3 9.6 9.0 80 1.7 S 13 20 7 11 1016.8 1016.8 0.0
29/08:00am 12.0 9.3 9.0 82 1.5 S 13 19 7 10 1016.5 1016.5 0.0
29/07:30am 11.7 10.0 9.8 88 1.0 S 9 13 5 7 1016.2 1016.2 0.0
29/07:00am 11.6 9.8 9.5 87 1.1 S 9 13 5 7 1015.9 1015.9 0.0
29/06:30am 11.5 9.7 9.4 87 1.1 S 9 13 5 7 1015.5 1015.5 0.0
29/06:00am 11.6 10.2 9.0 84 1.3 S 6 9 3 5 1015.3 1015.3 0.0
29/05:30am 11.9 9.9 8.6 80 1.6 S 9 13 5 7 1015.1 1015.1 0.0
29/05:00am 12.1 9.6 8.4 78 1.8 S 11 15 6 8 1014.9 1014.9 0.0
29/04:30am 12.4 9.7 8.9 79 1.8 S 13 17 7 9 1014.7 1014.7 0.0
29/04:00am 12.5 9.8 9.0 79 1.8 S 13 22 7 12 1014.5 1014.5 0.0
29/03:30am 12.4 10.1 8.9 79 1.8 S 11 15 6 8 1014.3 1014.3 0.0
29/03:00am 12.5 10.2 9.0 79 1.8 S 11 20 6 11 1014.0 1014.0 0.0
29/02:30am 12.5 10.2 9.1 80 1.7 S 11 17 6 9 1014.2 1014.2 0.0
29/02:00am 12.6 10.3 9.1 79 1.8 SSW 11 20 6 11 1014.4 1014.4 0.0
29/01:30am 12.4 10.1 8.9 79 1.8 S 11 17 6 9 1014.4 1014.4 0.0
29/01:00am 12.6 9.9 8.9 78 1.9 S 13 22 7 12 1014.5 1014.5 0.0
29/12:30am 12.7 10.1 9.2 79 1.8 SSW 13 20 7 11 1014.3 1014.3 0.0
29/12:00am 12.7 9.7 9.2 79 1.8 S 15 24 8 13 1014.3 1014.3 0.0
 
Date/Time
WST
Temp
°C
App
Temp
°C
Dew
Point
°C
Rel
Hum
%
Delta-T
°C
Wind Press
QNH
hPa
Press
MSL
hPa
Rain since
9am
mm
Dir  Spd
km/h
Gust
km/h
Spd
kts
Gust
kts
28/11:30pm 12.7 10.1 9.2 79 1.8 S 13 20 7 11 1014.3 1014.3 0.0
28/11:00pm 12.6 9.7 9.6 82 1.5 SSW 15 22 8 12 1014.4 1014.4 0.0
28/10:30pm 12.3 9.9 9.9 85 1.2 SSW 13 19 7 10 1014.4 1014.4 0.0
28/10:00pm 12.3 10.1 9.5 83 1.4 SSW 11 20 6 11 1014.4 1014.4 0.0
28/09:30pm 12.7 9.7 9.3 80 1.7 S 15 26 8 14 1014.2 1014.2 0.0
28/09:00pm 12.8 9.5 9.6 81 1.6 S 17 24 9 13 1014.0 1014.0 0.0
28/08:30pm 12.9 10.1 9.9 82 1.5 SSW 15 35 8 19 1013.8 1013.8 0.0
28/08:00pm 13.0 9.7 9.6 80 1.7 S 17 28 9 15 1013.3 1013.3 0.0
28/07:30pm 13.2 9.3 9.6 79 1.8 S 20 32 11 17 1012.9 1012.9 0.0
28/07:00pm 13.5 9.3 9.6 77 2.0 S 22 37 12 20 1012.6 1012.6 0.0
28/06:30pm 13.7 10.0 9.4 75 2.2 S 19 32 10 17 1012.3 1012.3 0.0
28/06:00pm 14.0 10.3 9.4 74 2.4 SSW 19 33 10 18 1012.0 1012.0 0.0
28/05:30pm 14.5 10.6 9.5 72 2.6 SSW 20 35 11 19 1011.7 1011.7 0.0
28/05:00pm 14.6 10.3 9.4 71 2.7 SSW 22 39 12 21 1011.4 1011.4 0.0
28/04:30pm 15.1 10.8 9.5 69 2.9 SSW 22 33 12 18 1011.2 1011.2 0.0
28/04:00pm 15.1 11.1 9.2 68 3.0 SSW 20 39 11 21 1010.9 1010.9 0.0
28/03:30pm 15.2 10.5 9.1 67 3.1 SSW 24 35 13 19 1010.8 1010.8 0.0
28/03:00pm 14.9 10.0 8.6 66 3.2 SSW 24 41 13 22 1010.7 1010.7 0.0
28/02:30pm 14.8 9.9 8.3 65 3.3 SSW 24 39 13 21 1010.6 1010.6 0.0
28/02:00pm 15.4 10.9 8.4 63 3.5 SSW 22 39 12 21 1010.5 1010.5 0.0
28/01:30pm 14.9 10.3 8.2 64 3.4 SSW 22 35 12 19 1010.5 1010.5 0.0
28/01:00pm 14.5 10.5 9.1 70 2.8 SSW 20 32 11 17 1010.6 1010.6 0.0
28/12:30pm 14.6 9.1 7.6 63 3.5 S 26 39 14 21 1010.8 1010.8 0.0
28/12:00pm 14.6 9.2 7.9 64 3.3 S 26 44 14 24 1011.0 1011.0 0.0
28/11:30am 14.1 9.1 8.1 67 3.0 SSW 24 43 13 23 1011.3 1011.3 0.0
28/11:00am 14.0 8.6 8.2 68 2.9 S 26 43 14 23 1011.4 1011.4 0.0
28/10:30am 13.6 8.6 8.0 69 2.8 S 24 41 13 22 1011.4 1011.4 0.0
28/10:10am 13.8 7.5 7.6 66 3.0 S 30 50 16 27 1011.2 1011.2 0.0
28/10:00am 13.6 8.2 7.8 68 2.9 S 26 46 14 25 1011.2 1011.2 0.0
28/09:30am 13.3 8.2 7.7 69 2.7 SSW 24 39 13 21 1011.0 1011.0 0.0
28/09:00am 13.3 7.9 8.2 71 2.5 S 26 43 14 23 1011.0 1011.0 2.6
28/08:30am 12.8 7.8 7.9 72 2.4 S 24 39 13 21 1010.6 1010.6 2.6
28/08:00am 12.7 7.6 7.8 72 2.4 SSW 24 39 13 21 1010.4 1010.4 2.6
28/07:30am 12.2 7.9 7.7 74 2.2 SSW 20 37 11 20 1009.9 1009.9 2.6
28/07:00am 12.1 7.7 7.6 74 2.2 S 20 30 11 16 1009.6 1009.6 2.6
28/06:30am 11.9 7.5 7.6 75 2.1 SSW 20 41 11 22 1009.2 1009.2 2.6
28/06:00am 12.0 7.2 7.5 74 2.2 S 22 39 12 21 1008.8 1008.8 2.6
28/05:30am 12.0 7.2 7.5 74 2.2 SSW 22 37 12 20 1008.5 1008.5 2.6
28/05:00am 12.2 7.1 7.5 73 2.3 SSW 24 43 13 23 1008.1 1008.1 2.6
28/04:30am 12.0 6.8 7.3 73 2.3 S 24 41 13 22 1007.8 1007.8 2.6
28/04:00am 12.0 7.6 7.3 73 2.3 SSW 20 39 11 21 1007.6 1007.6 2.6
28/03:30am 12.0 7.1 7.1 72 2.4 SSW 22 41 12 22 1007.7 1007.7 2.6
28/03:00am 12.0 7.6 7.3 73 2.3 SSW 20 37 11 20 1007.5 1007.5 2.6
28/02:30am 12.1 6.5 7.0 71 2.4 SSW 26 44 14 24 1007.3 1007.3 2.6
28/02:00am 12.2 7.4 7.5 73 2.3 SSW 22 37 12 20 1007.2 1007.2 2.6
28/01:30am 12.2 7.5 7.7 74 2.2 SSW 22 35 12 19 1007.1 1007.1 2.6
28/01:00am 12.5 7.8 7.6 72 2.4 SSW 22 41 12 22 1007.0 1007.0 2.6
28/12:30am 12.5 7.4 7.8 73 2.3 SSW 24 37 13 20 1006.7 1006.7 2.6
28/12:00am 12.6 7.6 8.1 74 2.2 SSW 24 39 13 21 1006.5 1006.5 2.6
 
Date/Time
WST
Temp
°C
App
Temp
°C
Dew
Point
°C
Rel
Hum
%
Delta-T
°C
Wind Press
QNH
hPa
Press
MSL
hPa
Rain since
9am
mm
Dir  Spd
km/h
Gust
km/h
Spd
kts
Gust
kts
27/11:30pm 12.6 7.6 8.1 74 2.2 SSW 24 43 13 23 1006.4 1006.4 2.6
27/11:00pm 12.7 7.7 8.0 73 2.3 SSW 24 37 13 20 1006.2 1006.2 2.6
27/10:30pm 12.7 7.3 8.0 73 2.3 SSW 26 41 14 22 1006.1 1006.1 2.6
27/10:00pm 12.6 8.0 8.3 75 2.1 SSW 22 41 12 22 1006.2 1006.2 2.6
27/09:30pm 12.7 7.7 8.0 73 2.3 SSW 24 37 13 20 1006.2 1006.2 2.6
27/09:00pm 12.9 8.0 8.6 75 2.2 SSW 24 35 13 19 1005.8 1005.8 2.6
27/08:30pm 13.0 8.6 9.1 77 2.0 SSW 22 35 12 19 1005.4 1005.4 2.6
27/08:03pm 13.0 7.6 9.4 79 1.8 SSW 28 46 15 25 1005.0 1005.0 2.6
27/08:00pm 13.0 7.6 9.4 79 1.8 SSW 28 43 15 23 1005.0 1005.0 2.6
27/07:30pm 13.1 7.4 9.7 80 1.7 SSW 30 46 16 25 1004.5 1004.5 2.6
27/07:02pm 13.6 8.4 10.4 81 1.7 SW 28 54 15 29 1004.0 1004.0 2.6
27/07:00pm 13.4 8.6 10.2 81 1.7 SW 26 44 14 24 1003.9 1003.9 2.6
27/06:30pm 13.0 9.2 11.1 88 1.0 SW 22 32 12 17 1003.5 1003.5 2.4
27/06:00pm 13.0 7.9 10.5 85 1.3 SW 28 59 15 32 1003.3 1003.3 2.4
27/05:51pm 13.7 8.2 10.7 82 1.6 SW 30 59 16 32 1003.1 1003.1 2.4
27/05:30pm 14.3 8.3 10.1 76 2.2 WSW 32 46 17 25 1002.8 1002.8 2.4
27/05:00pm 13.5 8.6 11.2 86 1.2 SW 28 46 15 25 1002.5 1002.5 2.4
27/04:30pm 13.0 7.2 10.9 87 1.1 WSW 32 52 17 28 1002.4 1002.4 2.2
27/04:00pm 14.2 8.2 10.2 77 2.1 W 32 50 17 27 1002.2 1002.2 2.0
27/03:54pm 14.2 8.6 10.2 77 2.1 W 30 50 16 27 1002.1 1002.1 2.0
27/03:30pm 13.7 7.5 9.9 78 2.0 W 33 48 18 26 1002.1 1002.1 2.0
27/03:01pm 13.4 8.0 9.5 77 2.0 WSW 28 57 15 31 1002.2 1002.2 2.0
27/03:00pm 13.5 8.5 9.6 77 2.0 WSW 26 57 14 31 1002.2 1002.2 2.0
27/02:31pm 14.1 7.6 9.1 72 2.5 W 33 52 18 28 1002.3 1002.3 2.0
27/02:30pm 14.1 7.3 9.1 72 2.5 W 35 52 19 28 1002.3 1002.3 2.0
27/02:00pm 13.9 7.7 9.5 75 2.3 W 32 56 17 30 1002.3 1002.3 2.0
27/01:52pm 13.6 8.1 9.3 75 2.2 WSW 28 56 15 30 1002.5 1002.5 2.0
27/01:30pm 14.4 8.9 9.2 71 2.7 WSW 28 43 15 23 1002.5 1002.5 2.0
27/01:00pm 13.7 7.9 9.4 75 2.2 WSW 30 48 16 26 1002.5 1002.5 2.0
27/12:52pm 14.3 8.8 9.1 71 2.6 WSW 28 48 15 26 1002.7 1002.7 2.0
27/12:30pm 14.8 10.1 9.2 69 2.9 WSW 24 35 13 19 1002.6 1002.6 2.0
27/12:00pm 14.7 8.2 8.2 65 3.3 WSW 32 46 17 25 1002.4 1002.4 2.0
27/11:30am 14.8 9.4 9.4 70 2.8 WSW 28 43 15 23 1002.0 1002.0 2.0
27/11:00am 14.4 9.7 10.8 79 1.9 SW 26 41 14 22 1001.8 1001.8 2.0
27/10:30am 14.3 10.4 12.0 86 1.2 SW 24 37 13 20 1001.3 1001.3 2.0
27/10:00am 14.3 9.1 11.6 84 1.5 WNW 30 50 16 27 1001.3 1001.3 0.8
27/09:51am 15.0 10.0 12.3 84 1.5 WNW 30 50 16 27 1001.3 1001.3 0.6
27/09:30am 14.5 12.9 12.7 89 1.0 W 13 33 7 18 1001.6 1001.6 0.4
27/09:00am 13.2 11.4 10.9 86 1.2 WSW 11 20 6 11 1001.4 1001.4 25.4
27/08:30am 14.9 10.0 10.1 73 2.5 WNW 26 35 14 19 1001.6 1001.6 21.6
27/08:00am 14.2 8.7 10.4 78 2.0 WNW 30 37 16 20 1001.8 1001.8 21.6

Other Formats:

Comma delimited format used in spreadsheet applications
http://www.bom.gov.au/fwo/IDW60801/IDW60801.94605.axf

JavaScript Object Notation format (JSON) in row-major order
http://www.bom.gov.au/fwo/IDW60801/IDW60801.94605.json